Terminal Aerodrome Forecast
Issued by NWS Sioux Falls, SD

Home | Current Version | Previous Version | Graphics & Text | Print | Product List | Glossary On
Versions: 1 2 3 4 5 6 7 8 9 10 11 12 13 14 15 16 17 18 19 20
000
FTUS43 KFSD 241729
TAFSUX
TAF
KSUX 241729Z 2418/2518 30008KT P6SM BKN250
     FM250000 28004KT P6SM SCT250
     FM250600 34007KT P6SM SCT250
     FM251500 VRB03KT P6SM SCT250=

USA.gov is the U.S. government's official web portal to all federal, state and local government web resources and services.